Terminal Aerodrome Forecast
Issued by NWS

Home | Current Version | Previous Version | Text Only | Print | Product List | Glossary Off
Versions: 1 2 3 4 5 6 7 8 9 10 11 12 13 14 15 16 17 18 19 20 21 22 23 24 25 26 27 28 29 30

000
FTUS43 KLOT 082000 AAA
TAFORD
TAF AMD
KORD 082001Z 0820/0924 28015G23KT P6SM BKN060
     FM090100 29007KT P6SM FEW060
     FM091400 33008KT P6SM SKC
     FM092000 04009KT P6SM FEW040=

USA.gov is the U.S. government's official web portal to all federal, state and local government web resources and services.